Time;durP1;ratioP1;P1;durP2;ratioP2;P2;SDS_P1;SDS_P2;PMS_P1;PMS_P2;Temp;Humidity;BMP_temperature;BMP_pressure;BME280_temperature;BME280_humidity;BME280_pressure;Samples;Min_cycle;Max_cycle;Signal;HPM_P1;HPM_P2
2024/03/15 00:01:03;;;;;;;9.83;4.17;;;15.70;96.20;;;;;;5037516;28;20448;-56
2024/03/15 00:03:30;;;;;;;6.33;3.60;;;15.60;96.20;;;;;;5037432;28;20449;-56
2024/03/15 00:05:57;;;;;;;3.00;2.70;;;15.60;96.30;;;;;;5037548;28;20449;-56
2024/03/15 00:08:24;;;;;;;8.60;3.83;;;15.60;96.40;;;;;;5037330;28;20859;-56
2024/03/15 00:10:51;;;;;;;7.30;3.47;;;15.60;96.50;;;;;;5036265;28;20819;-56
2024/03/15 00:13:18;;;;;;;10.40;3.90;;;15.60;96.50;;;;;;5037324;28;20446;-56
2024/03/15 00:15:45;;;;;;;6.13;3.30;;;15.60;96.60;;;;;;5036835;28;20443;-56
2024/03/15 00:18:12;;;;;;;6.73;3.43;;;15.50;96.60;;;;;;5037029;28;20553;-56
2024/03/15 00:20:39;;;;;;;5.90;3.10;;;15.60;96.70;;;;;;5037167;28;20520;-56
2024/03/15 00:23:07;;;;;;;7.60;3.43;;;15.60;96.70;;;;;;5037045;28;20495;-56
2024/03/15 00:25:34;;;;;;;4.93;3.00;;;15.60;96.80;;;;;;5037267;28;20448;-56
2024/03/15 00:28:03;;;;;;;4.03;3.43;;;15.50;96.80;;;;;;5036493;28;20481;-56
2024/03/15 00:30:29;;;;;;;8.33;3.13;;;15.50;96.80;;;;;;5037147;28;20449;-56
2024/03/15 00:32:57;;;;;;;5.90;3.60;;;15.50;96.90;;;;;;5036545;28;20445;-56
2024/03/15 00:35:24;;;;;;;7.57;4.00;;;15.50;97.00;;;;;;5036932;28;20450;-56
2024/03/15 00:37:51;;;;;;;5.60;3.50;;;15.50;97.00;;;;;;5036628;28;20465;-56
2024/03/15 00:40:18;;;;;;;7.53;2.73;;;15.60;97.10;;;;;;5036405;28;20445;-56
2024/03/15 00:42:45;;;;;;;5.90;3.63;;;15.60;97.00;;;;;;5036791;28;20456;-56
2024/03/15 00:45:12;;;;;;;4.23;2.50;;;15.60;97.10;;;;;;5036417;28;20437;-56
2024/03/15 00:47:40;;;;;;;5.80;3.87;;;15.60;97.20;;;;;;5036209;28;20521;-56
2024/03/15 00:50:07;;;;;;;5.90;3.17;;;15.50;97.20;;;;;;5036595;28;20453;-56
2024/03/15 00:52:34;;;;;;;6.67;3.27;;;15.50;97.20;;;;;;5036009;28;20935;-56
2024/03/15 00:55:02;;;;;;;5.10;2.87;;;15.50;97.30;;;;;;5035978;28;20442;-56
2024/03/15 00:57:29;;;;;;;3.73;3.03;;;15.50;97.30;;;;;;5035693;28;21045;-57
2024/03/15 00:59:56;;;;;;;6.57;3.23;;;15.40;97.40;;;;;;5037083;28;20430;-57
2024/03/15 01:02:23;;;;;;;5.50;2.90;;;15.40;98.00;;;;;;5036309;28;20452;-57
2024/03/15 01:04:49;;;;;;;5.70;3.07;;;15.30;97.80;;;;;;5036259;28;20468;-57
2024/03/15 01:07:16;;;;;;;7.90;3.37;;;15.40;97.80;;;;;;5035991;28;20462;-56
2024/03/15 01:09:43;;;;;;;5.53;3.10;;;15.30;97.80;;;;;;5036156;28;20496;-56
2024/03/15 01:12:10;;;;;;;7.27;2.83;;;15.30;97.90;;;;;;5036159;28;20445;-56
2024/03/15 01:14:37;;;;;;;9.13;3.60;;;15.30;97.90;;;;;;5036045;28;20442;-56
2024/03/15 01:17:04;;;;;;;8.57;3.30;;;15.30;98.00;;;;;;5036250;28;20458;-56
2024/03/15 01:19:32;;;;;;;5.73;3.07;;;15.30;97.90;;;;;;5035954;28;20444;-56
2024/03/15 01:22:00;;;;;;;4.67;2.60;;;15.30;98.00;;;;;;5036027;28;20540;-56
2024/03/15 01:24:28;;;;;;;6.90;2.77;;;15.30;98.00;;;;;;5035593;28;20945;-56
2024/03/15 01:26:56;;;;;;;4.87;2.87;;;15.30;97.90;;;;;;5035968;28;20492;-56
2024/03/15 01:29:24;;;;;;;4.77;3.50;;;15.30;98.30;;;;;;5036059;28;20481;-56
2024/03/15 01:31:51;;;;;;;10.70;2.77;;;15.30;97.90;;;;;;5035607;28;20865;-56
2024/03/15 01:34:18;;;;;;;9.23;3.70;;;15.40;97.90;;;;;;5035865;28;20517;-56
2024/03/15 01:36:45;;;;;;;5.10;3.90;;;15.30;98.00;;;;;;5035736;28;20463;-56
2024/03/15 01:39:12;;;;;;;10.73;4.07;;;15.30;97.80;;;;;;5035829;28;20443;-56
2024/03/15 01:41:39;;;;;;;6.40;4.40;;;15.30;97.90;;;;;;5035660;28;20784;-56
2024/03/15 01:44:06;;;;;;;7.83;4.27;;;15.30;98.00;;;;;;5035710;28;20452;-56
2024/03/15 01:46:35;;;;;;;8.77;4.10;;;15.30;97.90;;;;;;5035634;28;20462;-56
2024/03/15 01:49:02;;;;;;;6.63;3.93;;;15.20;98.00;;;;;;5035829;28;20524;-56
2024/03/15 01:51:30;;;;;;;4.87;3.90;;;15.30;98.10;;;;;;5036313;28;20572;-56
2024/03/15 01:54:00;;;;;;;5.10;3.17;;;15.30;98.10;;;;;;5035703;28;20445;-57
2024/03/15 01:56:27;;;;;;;7.10;3.20;;;15.20;98.00;;;;;;5036302;28;20873;-56
2024/03/15 01:58:54;;;;;;;10.77;2.70;;;15.30;98.00;;;;;;5035621;28;20515;-56
2024/03/15 02:01:21;;;;;;;6.07;2.87;;;15.30;98.00;;;;;;5035606;28;20540;-56
2024/03/15 02:03:48;;;;;;;6.43;3.00;;;15.30;98.00;;;;;;5035456;28;20899;-56
2024/03/15 02:06:15;;;;;;;8.87;3.07;;;15.30;97.90;;;;;;5035361;28;20437;-57
2024/03/15 02:08:42;;;;;;;3.90;2.47;;;15.30;97.90;;;;;;5035075;28;21021;-56
2024/03/15 02:11:10;;;;;;;4.73;2.40;;;15.30;97.80;;;;;;5035490;28;20448;-56
2024/03/15 02:13:37;;;;;;;9.10;2.90;;;15.30;97.80;;;;;;5035279;28;20446;-56
2024/03/15 02:16:04;;;;;;;2.50;2.03;;;15.30;97.70;;;;;;5035497;28;20441;-56
2024/03/15 02:18:31;;;;;;;4.73;2.87;;;15.30;97.80;;;;;;5035265;28;20462;-56
2024/03/15 02:20:58;;;;;;;10.83;3.10;;;15.30;97.80;;;;;;5035381;28;20449;-56
2024/03/15 02:23:25;;;;;;;5.97;3.30;;;15.30;97.80;;;;;;5035336;28;20448;-56
2024/03/15 02:25:52;;;;;;;5.00;3.07;;;15.30;97.80;;;;;;5034988;28;20925;-56
2024/03/15 02:28:22;;;;;;;6.30;3.63;;;15.30;97.80;;;;;;5035167;28;20469;-56
2024/03/15 02:30:49;;;;;;;8.27;3.50;;;15.30;98.30;;;;;;5035642;28;20442;-56
2024/03/15 02:33:16;;;;;;;8.00;4.37;;;15.30;97.80;;;;;;5034964;28;20528;-56
2024/03/15 02:35:43;;;;;;;9.00;3.33;;;15.30;97.90;;;;;;5038897;28;20453;-56
2024/03/15 02:38:10;;;;;;;5.70;3.70;;;15.30;97.80;;;;;;5039112;28;20508;-56
2024/03/15 02:40:37;;;;;;;9.17;3.53;;;15.30;97.80;;;;;;5039009;28;20441;-56
2024/03/15 02:43:04;;;;;;;9.80;3.53;;;15.30;97.70;;;;;;5038612;28;20445;-56
2024/03/15 02:45:31;;;;;;;6.80;3.13;;;15.30;97.80;;;;;;5038879;28;20441;-57
2024/03/15 02:47:59;;;;;;;8.70;3.40;;;15.30;97.90;;;;;;5038841;28;20469;-56
2024/03/15 02:50:26;;;;;;;11.00;3.50;;;15.20;98.00;;;;;;5038908;28;20904;-56
2024/03/15 02:52:53;;;;;;;10.87;3.67;;;15.20;97.90;;;;;;5038824;28;20524;-56
2024/03/15 02:55:20;;;;;;;4.77;3.27;;;15.20;97.80;;;;;;5038367;28;20536;-56
2024/03/15 02:57:47;;;;;;;4.07;2.77;;;15.20;97.90;;;;;;5038510;28;20473;-56
2024/03/15 03:00:14;;;;;;;7.27;2.90;;;15.20;98.30;;;;;;5038687;28;20448;-57
2024/03/15 03:02:41;;;;;;;4.97;2.60;;;15.20;97.90;;;;;;5038688;28;20448;-56
2024/03/15 03:05:09;;;;;;;5.20;2.90;;;15.10;98.00;;;;;;5038347;28;20955;-57
2024/03/15 03:07:36;;;;;;;3.50;2.73;;;15.10;97.90;;;;;;5038268;28;20518;-56
2024/03/15 03:10:03;;;;;;;7.63;3.03;;;15.10;98.00;;;;;;5038062;28;21006;-56
2024/03/15 03:12:30;;;;;;;8.70;2.77;;;15.10;98.00;;;;;;5038559;28;20463;-56
2024/03/15 03:14:57;;;;;;;6.00;3.23;;;15.10;98.00;;;;;;5038322;28;20437;-56
2024/03/15 03:17:25;;;;;;;7.70;2.70;;;15.00;98.10;;;;;;5038310;28;20460;-56
2024/03/15 03:19:52;;;;;;;6.30;2.60;;;15.00;98.20;;;;;;5038537;28;20515;-56
2024/03/15 03:22:19;;;;;;;6.13;3.00;;;15.00;98.20;;;;;;5038052;28;20438;-56
2024/03/15 03:24:46;;;;;;;6.43;3.40;;;15.00;98.10;;;;;;5037923;28;20460;-56
2024/03/15 03:27:13;;;;;;;4.77;2.97;;;15.00;98.20;;;;;;5038211;28;20453;-56
2024/03/15 03:29:41;;;;;;;7.97;2.77;;;15.00;98.10;;;;;;5037901;28;20481;-56
2024/03/15 03:32:08;;;;;;;7.33;3.00;;;15.10;98.20;;;;;;5037773;28;20455;-56
2024/03/15 03:34:35;;;;;;;16.47;3.03;;;15.00;98.10;;;;;;5037981;28;20814;-56
2024/03/15 03:37:02;;;;;;;6.60;2.80;;;15.00;98.10;;;;;;5037876;28;20462;-56
2024/03/15 03:39:30;;;;;;;4.97;2.60;;;15.10;98.10;;;;;;5037933;28;20448;-56
2024/03/15 03:41:57;;;;;;;5.20;3.27;;;15.00;98.00;;;;;;5038153;28;20545;-56
2024/03/15 03:44:26;;;;;;;7.93;4.10;;;15.10;98.10;;;;;;5037695;28;20477;-56
2024/03/15 03:46:53;;;;;;;7.57;3.70;;;15.10;98.00;;;;;;5038080;28;20457;-56
2024/03/15 03:49:20;;;;;;;5.50;3.90;;;15.10;98.10;;;;;;5037609;28;20845;-56
2024/03/15 03:51:47;;;;;;;6.20;3.20;;;15.10;98.00;;;;;;5037646;28;20541;-56
2024/03/15 03:54:14;;;;;;;6.63;2.73;;;15.10;98.10;;;;;;5038166;28;20453;-57
2024/03/15 03:56:41;;;;;;;8.40;3.10;;;15.10;97.90;;;;;;5037151;28;20995;-57
2024/03/15 03:59:09;;;;;;;7.10;3.50;;;15.10;97.90;;;;;;5037603;28;20891;-56
2024/03/15 04:01:36;;;;;;;7.80;3.10;;;15.10;98.00;;;;;;5037450;28;20434;-56
2024/03/15 04:04:03;;;;;;;4.63;3.10;;;15.10;98.10;;;;;;5037535;28;20477;-56
2024/03/15 04:06:29;;;;;;;7.70;3.73;;;15.10;98.10;;;;;;5037062;28;20444;-56
2024/03/15 04:08:57;;;;;;;9.63;3.80;;;15.10;98.10;;;;;;5037332;28;20529;-56
2024/03/15 04:11:24;;;;;;;8.77;3.50;;;15.00;98.10;;;;;;5037048;28;20449;-56
2024/03/15 04:13:52;;;;;;;6.27;3.23;;;15.00;98.20;;;;;;5038024;28;20456;-56
2024/03/15 04:16:19;;;;;;;5.80;3.90;;;15.00;98.20;;;;;;5037028;28;20536;-56
2024/03/15 04:18:47;;;;;;;6.33;3.40;;;14.90;98.30;;;;;;5037278;28;20450;-56
2024/03/15 04:21:16;;;;;;;8.60;2.90;;;15.00;98.40;;;;;;5037241;28;20441;-56
2024/03/15 04:23:43;;;;;;;3.57;2.43;;;15.00;98.70;;;;;;5037381;28;20442;-57
2024/03/15 04:26:10;;;;;;;9.80;3.07;;;15.00;98.40;;;;;;5036751;28;20449;-56
2024/03/15 04:28:38;;;;;;;8.47;3.07;;;14.90;98.50;;;;;;5036647;28;20524;-56
2024/03/15 04:31:05;;;;;;;6.40;3.53;;;14.90;98.60;;;;;;5036934;28;20481;-56
2024/03/15 04:33:32;;;;;;;5.40;2.90;;;14.90;98.60;;;;;;5036897;28;20445;-56
2024/03/15 04:36:04;;;;;;;11.10;3.30;;;14.90;98.70;;;;;;5037021;28;20449;-56
2024/03/15 04:38:31;;;;;;;5.60;3.30;;;14.90;98.80;;;;;;5037117;28;20979;-56
2024/03/15 04:41:09;;;;;;;8.97;3.57;;;14.80;98.90;;;;;;5036989;28;20521;-56
2024/03/15 04:43:36;;;;;;;8.30;3.27;;;14.90;99.00;;;;;;5038287;28;20425;-56
2024/03/15 04:46:03;;;;;;;12.60;3.50;;;14.90;99.00;;;;;;5036889;28;20438;-56
2024/03/15 04:48:29;;;;;;;9.53;3.50;;;14.90;99.00;;;;;;5036661;28;20462;-56
2024/03/15 04:50:56;;;;;;;9.07;3.23;;;14.90;99.00;;;;;;5036556;28;20489;-56
2024/03/15 04:53:23;;;;;;;6.80;2.97;;;14.90;99.00;;;;;;5036649;28;20442;-56
2024/03/15 04:55:52;;;;;;;6.40;3.67;;;14.90;99.00;;;;;;5036441;28;20525;-56
2024/03/15 04:58:20;;;;;;;7.57;3.90;;;14.90;99.00;;;;;;5036120;28;20480;-56
2024/03/15 05:00:47;;;;;;;6.03;3.50;;;15.00;99.10;;;;;;5036586;28;20824;-56
2024/03/15 05:03:14;;;;;;;9.73;4.17;;;15.00;99.10;;;;;;5036311;28;20442;-56
2024/03/15 05:05:41;;;;;;;11.23;4.10;;;15.00;99.20;;;;;;5035938;28;20998;-56
2024/03/15 05:08:08;;;;;;;12.83;3.83;;;15.00;99.20;;;;;;5035865;28;20458;-57
2024/03/15 05:10:35;;;;;;;5.30;3.80;;;15.00;99.60;;;;;;5036279;28;20517;-56
2024/03/15 05:13:02;;;;;;;7.77;3.87;;;15.00;99.40;;;;;;5036180;28;20450;-56
2024/03/15 05:15:29;;;;;;;11.57;3.87;;;15.00;99.50;;;;;;5036197;28;20804;-57
2024/03/15 05:17:56;;;;;;;11.80;4.77;;;15.00;99.50;;;;;;5036080;28;20461;-56
2024/03/15 05:20:23;;;;;;;11.87;4.47;;;15.00;99.60;;;;;;5036078;28;20471;-56
2024/03/15 05:22:50;;;;;;;12.20;5.33;;;15.00;99.70;;;;;;5035987;28;20448;-56
2024/03/15 05:25:17;;;;;;;5.50;4.00;;;15.00;99.60;;;;;;5036080;28;20477;-56
2024/03/15 05:27:45;;;;;;;7.33;4.43;;;15.00;99.70;;;;;;5036014;28;20548;-55
2024/03/15 05:30:14;;;;;;;9.33;5.83;;;15.00;99.80;;;;;;5035774;28;20485;-54
2024/03/15 05:32:41;;;;;;;12.80;5.23;;;15.00;99.80;;;;;;5036088;28;20860;-55
2024/03/15 05:35:08;;;;;;;7.47;4.20;;;14.90;99.80;;;;;;5035894;28;20452;-55
2024/03/15 05:37:35;;;;;;;7.03;4.30;;;14.90;99.80;;;;;;5035773;28;20457;-55
2024/03/15 05:40:03;;;;;;;5.30;3.60;;;14.90;99.80;;;;;;5035574;28;20962;-56
2024/03/15 05:42:32;;;;;;;9.83;4.27;;;14.90;99.90;;;;;;5035873;28;20855;-57
2024/03/15 05:44:59;;;;;;;9.10;4.93;;;14.90;99.90;;;;;;5035910;28;20488;-56
2024/03/15 05:47:26;;;;;;;13.03;4.60;;;14.90;99.90;;;;;;5035216;28;20469;-57
2024/03/15 05:49:52;;;;;;;13.03;4.80;;;14.90;99.90;;;;;;5035544;28;20514;-55
2024/03/15 05:52:19;;;;;;;7.30;4.10;;;14.90;99.90;;;;;;5035553;28;20440;-54
2024/03/15 05:54:46;;;;;;;11.53;4.30;;;14.90;99.90;;;;;;5035249;28;20529;-54
2024/03/15 05:57:13;;;;;;;10.87;6.00;;;15.00;99.90;;;;;;5035275;28;20473;-55
2024/03/15 05:59:40;;;;;;;8.30;5.47;;;14.90;99.90;;;;;;5035612;28;20443;-54
2024/03/15 06:02:07;;;;;;;12.03;5.30;;;14.90;99.90;;;;;;5035182;28;20448;-54
2024/03/15 06:04:34;;;;;;;6.90;4.17;;;14.90;99.90;;;;;;5035447;28;20456;-54
2024/03/15 06:07:01;;;;;;;7.60;4.07;;;14.90;99.90;;;;;;5035281;28;20545;-54
2024/03/15 06:09:29;;;;;;;7.67;5.00;;;15.00;99.90;;;;;;5037123;28;20451;-55
2024/03/15 06:11:56;;;;;;;11.90;4.67;;;15.00;99.90;;;;;;5039658;28;20445;-54
2024/03/15 06:14:24;;;;;;;11.27;4.63;;;15.00;99.90;;;;;;5039613;28;20448;-54
2024/03/15 06:16:51;;;;;;;9.83;4.73;;;15.00;99.90;;;;;;5039405;28;20988;-55
2024/03/15 06:19:19;;;;;;;6.40;3.83;;;15.00;99.90;;;;;;5039362;28;20441;-54
2024/03/15 06:21:48;;;;;;;9.00;4.37;;;15.00;99.90;;;;;;5039377;28;20499;-56
2024/03/15 06:24:15;;;;;;;7.00;4.33;;;15.00;99.90;;;;;;5039604;28;20454;-57
2024/03/15 06:26:42;;;;;;;7.33;3.60;;;15.00;99.90;;;;;;5039207;28;20471;-55
2024/03/15 06:29:09;;;;;;;5.60;4.23;;;15.10;99.90;;;;;;5039349;28;20453;-54
2024/03/15 06:31:37;;;;;;;6.47;3.87;;;15.00;99.90;;;;;;5039237;28;20483;-56
2024/03/15 06:34:08;;;;;;;6.57;4.17;;;15.10;99.90;;;;;;5039343;28;20511;-56
2024/03/15 06:36:41;;;;;;;6.27;3.67;;;15.10;99.90;;;;;;5039717;28;20807;-56
2024/03/15 06:39:22;;;;;;;11.37;3.90;;;15.10;99.90;;;;;;5039795;28;20469;-56
2024/03/15 06:41:53;;;;;;;5.37;4.07;;;15.20;99.90;;;;;;5041369;28;20421;-56
2024/03/15 06:44:23;;;;;;;5.80;3.60;;;15.20;99.90;;;;;;5039643;28;20475;-57
2024/03/15 06:47:04;;;;;;;5.90;4.13;;;15.30;99.90;;;;;;5039211;28;20523;-54
2024/03/15 06:49:44;;;;;;;8.13;3.20;;;15.20;99.90;;;;;;5040947;28;20444;-54
2024/03/15 06:54:56;;;;;;;9.87;3.70;;;15.30;99.90;;;;;;5041353;28;20412;-54
2024/03/15 06:57:23;;;;;;;6.33;3.20;;;15.20;99.90;;;;;;5038296;28;20480;-54
2024/03/15 06:59:50;;;;;;;5.50;3.53;;;15.20;99.90;;;;;;5038772;28;20495;-54
2024/03/15 07:02:17;;;;;;;4.97;3.40;;;15.20;99.90;;;;;;5038675;28;20437;-54
2024/03/15 07:04:44;;;;;;;8.53;4.10;;;15.20;99.90;;;;;;5038582;28;20446;-54
2024/03/15 07:07:13;;;;;;;7.03;3.70;;;15.30;99.90;;;;;;5038610;28;20511;-55
2024/03/15 07:09:41;;;;;;;5.07;3.90;;;15.30;99.90;;;;;;5039141;28;20472;-55
2024/03/15 07:12:08;;;;;;;4.53;3.87;;;15.20;99.90;;;;;;5038489;28;20538;-55
2024/03/15 07:14:35;;;;;;;6.87;4.00;;;15.10;99.90;;;;;;5039801;28;20441;-58
2024/03/15 07:17:04;;;;;;;5.33;3.67;;;15.00;99.90;;;;;;5038622;28;20557;-56
2024/03/15 07:19:32;;;;;;;5.13;3.60;;;14.90;99.90;;;;;;5038465;28;20445;-56
2024/03/15 07:21:59;;;;;;;4.67;4.07;;;14.80;99.90;;;;;;5038780;28;20455;-58
2024/03/15 07:24:26;;;;;;;4.27;3.80;;;14.70;99.90;;;;;;5038874;28;20438;-58
2024/03/15 07:26:54;;;;;;;6.57;3.70;;;14.70;99.90;;;;;;5038852;28;20484;-56
2024/03/15 07:29:21;;;;;;;5.00;3.53;;;14.70;99.90;;;;;;5038824;28;20441;-56
2024/03/15 07:31:49;;;;;;;8.87;4.10;;;14.60;99.90;;;;;;5038875;28;20481;-56
2024/03/15 07:34:16;;;;;;;5.80;4.07;;;14.60;99.90;;;;;;5038810;28;20520;-57
2024/03/15 07:36:44;;;;;;;6.67;4.03;;;14.60;99.90;;;;;;5038778;28;20469;-57
2024/03/15 07:39:11;;;;;;;6.47;4.90;;;14.60;99.90;;;;;;5038206;28;20445;-57
2024/03/15 07:41:38;;;;;;;4.20;3.63;;;14.60;99.90;;;;;;5038442;28;20472;-57
2024/03/15 07:44:05;;;;;;;7.53;3.90;;;14.70;99.90;;;;;;5038494;28;20560;-57
2024/03/15 07:46:34;;;;;;;7.00;4.13;;;14.80;99.90;;;;;;5038343;28;20442;-57
2024/03/15 07:49:01;;;;;;;4.30;3.90;;;14.80;99.90;;;;;;5037879;28;20446;-56
2024/03/15 07:51:28;;;;;;;6.93;4.20;;;14.90;99.90;;;;;;5037589;28;20481;-56
2024/03/15 07:53:55;;;;;;;6.07;4.03;;;14.90;99.90;;;;;;5037656;28;20437;-56
2024/03/15 07:56:22;;;;;;;7.37;4.10;;;15.00;99.90;;;;;;5037671;28;20800;-56
2024/03/15 07:58:52;;;;;;;5.07;4.13;;;15.10;99.90;;;;;;5037564;28;20441;-56
2024/03/15 08:01:19;;;;;;;6.00;3.50;;;15.10;99.90;;;;;;5037650;28;20923;-56
2024/03/15 08:03:46;;;;;;;4.80;4.07;;;15.20;99.90;;;;;;5037536;28;20437;-56
2024/03/15 08:06:15;;;;;;;5.70;3.63;;;15.30;99.90;;;;;;5038027;28;20460;-56
2024/03/15 08:08:42;;;;;;;4.37;3.50;;;15.40;99.90;;;;;;5037240;28;20504;-56
2024/03/15 08:11:11;;;;;;;5.70;3.90;;;15.50;99.90;;;;;;5037277;28;20484;-56
2024/03/15 08:13:38;;;;;;;9.10;4.30;;;15.60;99.90;;;;;;5038480;28;20473;-56
2024/03/15 08:16:18;;;;;;;5.37;3.47;;;15.70;99.90;;;;;;5037412;28;20549;-56
2024/03/15 08:18:47;;;;;;;5.53;3.67;;;15.80;99.90;;;;;;5039096;28;20445;-56
2024/03/15 08:21:14;;;;;;;4.13;3.73;;;15.90;99.90;;;;;;5037596;28;20441;-56
2024/03/15 08:23:42;;;;;;;4.17;3.53;;;15.90;99.90;;;;;;5037728;28;20441;-54
2024/03/15 08:26:09;;;;;;;4.17;3.77;;;15.90;99.90;;;;;;5036893;28;20449;-54
2024/03/15 08:28:36;;;;;;;4.43;3.83;;;15.90;99.90;;;;;;5037121;28;20504;-54
2024/03/15 08:31:04;;;;;;;8.67;3.97;;;15.90;99.90;;;;;;5036423;28;20485;-54
2024/03/15 08:33:31;;;;;;;7.03;3.47;;;16.00;99.90;;;;;;5036740;28;20449;-54
2024/03/15 08:35:58;;;;;;;5.37;3.13;;;16.20;99.90;;;;;;5036993;28;20532;-54
2024/03/15 08:38:25;;;;;;;4.57;3.37;;;16.20;99.90;;;;;;5036771;28;20464;-55
2024/03/15 08:40:52;;;;;;;3.83;3.30;;;16.30;99.90;;;;;;5037674;28;20531;-54
2024/03/15 08:43:19;;;;;;;4.03;3.33;;;16.30;99.90;;;;;;5036886;28;20476;-54
2024/03/15 08:45:49;;;;;;;4.43;3.33;;;16.30;99.90;;;;;;5036639;28;20952;-54
2024/03/15 08:48:17;;;;;;;3.70;3.00;;;16.30;99.90;;;;;;5037186;28;20462;-54
2024/03/15 08:50:46;;;;;;;3.60;3.10;;;16.30;99.90;;;;;;5036542;28;21006;-54
2024/03/15 08:53:13;;;;;;;4.83;3.47;;;16.40;99.90;;;;;;5036878;28;20445;-54
2024/03/15 08:55:42;;;;;;;4.73;3.33;;;16.50;99.90;;;;;;5036367;28;20816;-56
2024/03/15 08:58:09;;;;;;;3.87;3.33;;;16.60;99.90;;;;;;5036774;28;20548;-56
2024/03/15 09:00:38;;;;;;;4.27;3.30;;;16.70;99.90;;;;;;5036313;28;20445;-56
2024/03/15 09:03:06;;;;;;;3.50;2.73;;;16.70;99.90;;;;;;5036426;28;20481;-54
2024/03/15 09:05:33;;;;;;;4.20;3.37;;;16.70;99.90;;;;;;5036600;28;20442;-54
2024/03/15 09:08:00;;;;;;;5.27;2.87;;;16.70;99.90;;;;;;5036202;28;20467;-54
2024/03/15 09:10:27;;;;;;;3.63;2.87;;;16.80;99.90;;;;;;5035897;28;20446;-54
2024/03/15 09:12:54;;;;;;;3.00;2.70;;;16.90;99.90;;;;;;5036574;28;20499;-54
2024/03/15 09:15:22;;;;;;;4.90;3.07;;;16.90;99.90;;;;;;5035868;28;20438;-54
2024/03/15 09:17:50;;;;;;;3.27;2.47;;;17.00;99.90;;;;;;5036224;28;20497;-54
2024/03/15 09:20:20;;;;;;;4.03;2.17;;;17.10;99.80;;;;;;5036013;28;20954;-54
2024/03/15 09:22:48;;;;;;;3.80;2.30;;;17.00;99.90;;;;;;5036764;28;20437;-54
2024/03/15 09:25:19;;;;;;;3.00;2.47;;;17.10;99.90;;;;;;5036409;28;20481;-54
2024/03/15 09:27:48;;;;;;;3.10;2.60;;;17.20;99.90;;;;;;5036370;28;20872;-54
2024/03/15 09:30:20;;;;;;;5.03;2.70;;;17.30;99.30;;;;;;5036286;28;20449;-54
2024/03/15 09:32:48;;;;;;;3.27;2.30;;;17.50;99.30;;;;;;5036700;28;20481;-54
2024/03/15 09:35:17;;;;;;;5.20;2.43;;;17.70;98.80;;;;;;5036106;28;20544;-54
2024/03/15 09:37:50;;;;;;;3.87;2.47;;;17.90;98.60;;;;;;5036132;28;20515;-54
2024/03/15 09:40:18;;;;;;;3.77;2.17;;;18.00;98.20;;;;;;5036749;28;20426;-54
2024/03/15 09:42:48;;;;;;;5.00;2.63;;;18.00;97.50;;;;;;5035805;28;20444;-56
2024/03/15 09:45:16;;;;;;;4.33;2.40;;;18.00;97.00;;;;;;5036048;28;20433;-55
2024/03/15 09:47:43;;;;;;;5.10;2.90;;;17.90;97.30;;;;;;5035858;28;20466;-55
2024/03/15 09:50:11;;;;;;;2.90;2.20;;;17.90;97.70;;;;;;5035905;28;20450;-54
2024/03/15 09:52:39;;;;;;;3.17;2.67;;;17.80;97.50;;;;;;5035983;28;20493;-54
2024/03/15 09:55:13;;;;;;;4.00;2.03;;;17.90;97.70;;;;;;5036161;28;20445;-54
2024/03/15 09:57:43;;;;;;;5.13;2.63;;;17.90;97.80;;;;;;5036261;28;20485;-54
2024/03/15 10:00:13;;;;;;;4.30;2.57;;;17.90;98.00;;;;;;5036299;28;20484;-54
2024/03/15 10:02:40;;;;;;;3.97;1.80;;;17.90;97.70;;;;;;5036270;28;20444;-54
2024/03/15 10:05:07;;;;;;;3.00;1.90;;;17.80;97.10;;;;;;5035821;28;20445;-54
2024/03/15 10:07:34;;;;;;;2.47;2.17;;;17.80;97.60;;;;;;5035858;28;20468;-54
2024/03/15 10:10:05;;;;;;;2.87;2.00;;;17.80;97.30;;;;;;5035336;28;20971;-54
2024/03/15 10:12:33;;;;;;;2.70;2.10;;;17.80;97.60;;;;;;5035786;28;20556;-55
2024/03/15 10:15:01;;;;;;;3.20;2.00;;;17.90;97.80;;;;;;5035603;28;20441;-54
2024/03/15 10:17:28;;;;;;;2.83;1.43;;;17.90;97.70;;;;;;5035563;28;20480;-54
2024/03/15 10:19:55;;;;;;;7.10;1.60;;;18.00;96.60;;;;;;5035269;28;20984;-54
2024/03/15 10:22:22;;;;;;;2.23;1.40;;;18.10;96.50;;;;;;5035464;28;20453;-54
2024/03/15 10:24:50;;;;;;;4.17;1.40;;;18.10;96.00;;;;;;5035377;28;20445;-54
2024/03/15 10:27:19;;;;;;;4.83;1.60;;;18.20;96.10;;;;;;5035438;28;20473;-54
2024/03/15 10:29:45;;;;;;;2.17;1.50;;;18.20;95.10;;;;;;5035448;28;20560;-54
2024/03/15 10:32:12;;;;;;;2.60;1.70;;;18.30;95.50;;;;;;5035075;28;21003;-54
2024/03/15 10:34:39;;;;;;;2.37;1.67;;;18.40;95.60;;;;;;5035310;28;20484;-54
2024/03/15 10:37:08;;;;;;;2.23;1.40;;;18.50;95.30;;;;;;5035232;28;20844;-54
2024/03/15 10:39:35;;;;;;;4.27;1.63;;;18.60;95.10;;;;;;5035613;28;20448;-54
2024/03/15 10:42:04;;;;;;;1.93;1.60;;;18.70;95.10;;;;;;5035083;28;20958;-54
2024/03/15 10:44:31;;;;;;;8.53;2.00;;;18.70;94.30;;;;;;5034998;28;20947;-54
2024/03/15 10:46:58;;;;;;;3.20;1.50;;;18.70;94.40;;;;;;5035084;28;20469;-54
2024/03/15 10:49:25;;;;;;;2.43;1.57;;;18.80;93.60;;;;;;5034907;28;20445;-54
2024/03/15 10:51:52;;;;;;;1.67;1.57;;;19.00;93.30;;;;;;5035074;28;20850;-54
2024/03/15 10:54:19;;;;;;;1.93;1.70;;;19.40;92.40;;;;;;5035704;28;20464;-55
2024/03/15 10:56:47;;;;;;;2.53;1.30;;;19.90;91.10;;;;;;5038536;28;21073;-55
2024/03/15 10:59:13;;;;;;;3.50;1.90;;;19.80;88.90;;;;;;5038476;28;20437;-55
2024/03/15 11:01:41;;;;;;;2.97;1.17;;;19.60;89.90;;;;;;5038692;28;20440;-54
2024/03/15 11:04:09;;;;;;;8.37;1.63;;;19.60;90.30;;;;;;5038619;28;20444;-55
2024/03/15 11:06:40;;;;;;;2.67;1.30;;;20.00;90.50;;;;;;5038692;28;20446;-55
2024/03/15 11:09:14;;;;;;;2.03;1.07;;;20.40;88.40;;;;;;5038588;28;20442;-54
2024/03/15 11:11:41;;;;;;;4.67;1.50;;;20.40;86.80;;;;;;5038438;28;20477;-55
2024/03/15 11:14:14;;;;;;;4.17;1.30;;;20.50;87.10;;;;;;5038170;28;20814;-54
2024/03/15 11:16:42;;;;;;;4.50;1.60;;;21.00;85.80;;;;;;5038365;28;20472;-55
2024/03/15 11:19:08;;;;;;;2.60;1.30;;;21.50;85.00;;;;;;5038273;28;20448;-55
2024/03/15 11:21:35;;;;;;;3.00;1.57;;;21.50;83.00;;;;;;5038479;28;20442;-55
2024/03/15 11:24:07;;;;;;;2.50;1.13;;;21.70;84.70;;;;;;5038369;28;20448;-55
2024/03/15 11:26:34;;;;;;;2.33;1.23;;;22.30;81.10;;;;;;5038486;28;20473;-55
2024/03/15 11:29:01;;;;;;;5.10;1.40;;;23.10;76.60;;;;;;5038216;28;20437;-56
2024/03/15 11:31:29;;;;;;;4.47;1.57;;;23.90;71.70;;;;;;5038156;28;20442;-55
2024/03/15 11:33:58;;;;;;;2.50;1.00;;;24.50;68.60;;;;;;5038210;28;20448;-55
2024/03/15 11:36:27;;;;;;;3.10;1.23;;;25.00;65.20;;;;;;5038297;28;20488;-55
2024/03/15 11:38:54;;;;;;;2.63;1.10;;;25.40;61.40;;;;;;5038216;28;20499;-55
2024/03/15 11:41:21;;;;;;;5.77;1.60;;;25.30;60.50;;;;;;5038364;28;20807;-55
2024/03/15 11:43:48;;;;;;;1.67;1.20;;;24.60;59.50;;;;;;5037956;28;20841;-55
2024/03/15 11:46:15;;;;;;;5.37;1.30;;;23.90;62.10;;;;;;5037933;28;20444;-56
2024/03/15 11:48:45;;;;;;;3.63;1.37;;;23.30;64.40;;;;;;5037794;28;20549;-55
2024/03/15 11:51:12;;;;;;;7.03;1.70;;;22.70;66.60;;;;;;5038269;28;20449;-55
2024/03/15 11:53:39;;;;;;;5.73;2.10;;;22.30;69.80;;;;;;5037375;28;20513;-55
2024/03/15 11:56:07;;;;;;;6.00;1.67;;;21.90;71.10;;;;;;5037470;28;20550;-55
2024/03/15 11:58:34;;;;;;;5.17;1.43;;;21.40;72.00;;;;;;5037651;28;20469;-55
2024/03/15 12:01:00;;;;;;;2.43;1.43;;;21.00;73.10;;;;;;5037710;28;20443;-54
2024/03/15 12:03:30;;;;;;;2.97;1.27;;;20.50;73.50;;;;;;5037165;28;20944;-54
2024/03/15 12:05:58;;;;;;;10.80;1.53;;;20.20;76.80;;;;;;5037803;28;20804;-54
2024/03/15 12:08:25;;;;;;;5.87;1.80;;;19.90;78.10;;;;;;5037314;28;20474;-54
2024/03/15 12:10:52;;;;;;;4.60;1.47;;;19.60;80.40;;;;;;5037345;28;20794;-54
2024/03/15 12:13:19;;;;;;;3.63;1.43;;;19.30;78.90;;;;;;5037296;28;20485;-55
2024/03/15 12:15:46;;;;;;;6.33;1.30;;;18.90;80.90;;;;;;5037363;28;20468;-55
2024/03/15 12:18:14;;;;;;;7.80;1.70;;;18.80;82.90;;;;;;5037191;28;20465;-54
2024/03/15 12:20:41;;;;;;;4.73;1.70;;;18.60;82.90;;;;;;5037339;28;20436;-54
2024/03/15 12:23:08;;;;;;;11.70;1.50;;;18.40;84.60;;;;;;5037263;28;20438;-55
2024/03/15 12:25:34;;;;;;;3.13;1.40;;;18.50;85.20;;;;;;5037200;28;20452;-55
2024/03/15 12:28:05;;;;;;;2.90;1.40;;;18.50;84.60;;;;;;5036600;28;20466;-55
2024/03/15 12:30:31;;;;;;;5.37;1.70;;;19.10;83.70;;;;;;5038240;28;20819;-55
2024/03/15 12:32:58;;;;;;;9.43;2.03;;;19.60;81.50;;;;;;5036983;28;20484;-55
2024/03/15 12:35:25;;;;;;;1.43;1.10;;;20.10;80.50;;;;;;5036999;28;20444;-55
2024/03/15 12:37:53;;;;;;;3.23;1.23;;;20.30;79.20;;;;;;5036745;28;20463;-55
2024/03/15 12:40:20;;;;;;;5.07;1.50;;;20.30;78.50;;;;;;5036613;28;20449;-55
2024/03/15 12:42:47;;;;;;;5.00;1.73;;;20.40;77.40;;;;;;5036456;28;20442;-55
2024/03/15 12:45:15;;;;;;;4.97;1.47;;;20.30;78.20;;;;;;5036771;28;20441;-54
2024/03/15 12:47:41;;;;;;;4.80;1.40;;;20.20;79.40;;;;;;5036711;28;20653;-55
2024/03/15 12:50:12;;;;;;;6.63;2.17;;;20.00;80.40;;;;;;5036349;28;20944;-55